createdAt,value
2018-09-01T00:00:09.721Z,101169.40
2018-09-01T00:02:38.715Z,101172.92
2018-09-01T00:05:08.385Z,101168.67
2018-09-01T00:07:37.242Z,101180.08
2018-09-01T00:10:07.689Z,101177.07
2018-09-01T00:12:37.347Z,101176.23
2018-09-01T00:15:07.215Z,101183.19
2018-09-01T00:17:36.560Z,101177.80
2018-09-01T00:20:05.949Z,101181.63
2018-09-01T00:22:35.526Z,101180.88
2018-09-01T00:25:04.750Z,101182.01
2018-09-01T00:27:34.259Z,101187.61
2018-09-01T00:30:04.361Z,101186.05
2018-09-01T00:32:33.145Z,101188.75
2018-09-01T00:35:03.026Z,101190.86
2018-09-01T00:37:37.016Z,101184.84
2018-09-01T00:40:07.079Z,101189.93
2018-09-01T00:42:37.030Z,101189.93
2018-09-01T00:45:06.699Z,101192.01
2018-09-01T00:47:35.857Z,101188.27
2018-09-01T00:50:05.800Z,101196.67
2018-09-01T00:52:34.794Z,101196.67
2018-09-01T00:55:03.637Z,101197.81
2018-09-01T00:57:32.983Z,101198.40
2018-09-01T01:00:01.820Z,101200.58
2018-09-01T01:02:30.574Z,101204.03
2018-09-01T01:04:59.887Z,101200.51
2018-09-01T01:07:28.683Z,101203.58
2018-09-01T01:09:57.581Z,101202.45
2018-09-01T01:12:27.167Z,101215.12
2018-09-01T01:14:55.984Z,101211.08
2018-09-01T01:17:25.303Z,101211.61
2018-09-01T01:19:54.120Z,101209.73
2018-09-01T01:22:23.404Z,101209.73
2018-09-01T01:24:52.199Z,101214.30
2018-09-01T01:27:21.916Z,101215.41
2018-09-01T01:29:51.574Z,101211.36
2018-09-01T01:32:20.324Z,101214.06
2018-09-01T01:34:50.372Z,101220.28
2018-09-01T01:37:19.104Z,101218.72
2018-09-01T01:39:48.427Z,101221.00
2018-09-01T01:42:17.951Z,101223.18
2018-09-01T01:44:47.295Z,101225.05
2018-09-01T01:47:16.083Z,101218.62
2018-09-01T01:49:45.729Z,101227.33
2018-09-01T01:52:14.822Z,101230.76
2018-09-01T01:54:43.557Z,101230.17
2018-09-01T01:57:13.052Z,101234.42
2018-09-01T01:59:41.906Z,101234.32
2018-09-01T02:02:10.956Z,101231.73
2018-09-01T02:04:40.255Z,101228.30
2018-09-01T02:07:09.319Z,101238.47
2018-09-01T02:09:38.124Z,101234.32
2018-09-01T02:12:08.529Z,101233.91
2018-09-01T02:14:37.281Z,101232.04
2018-09-01T02:17:07.009Z,101235.15
2018-09-01T02:19:36.071Z,101228.41
2018-09-01T02:22:05.526Z,101229.76
2018-09-01T02:24:34.751Z,101228.20
2018-09-01T02:27:03.846Z,101233.08
2018-09-01T02:29:33.684Z,101233.91
2018-09-01T02:32:02.704Z,101233.70
2018-09-01T02:34:32.165Z,101234.94
2018-09-01T02:37:01.015Z,101237.53
2018-09-01T02:39:30.434Z,101236.39
2018-09-01T02:41:59.375Z,101241.69
2018-09-01T02:44:28.938Z,101244.90
2018-09-01T02:46:57.740Z,101243.03
2018-09-01T02:49:27.263Z,101245.21
2018-09-01T02:51:56.181Z,101245.62
2018-09-01T02:54:24.934Z,101250.73
2018-09-01T02:56:54.429Z,101248.25
2018-09-01T02:59:23.191Z,101250.11
2018-09-01T03:01:52.057Z,101250.73
2018-09-01T03:04:22.296Z,101256.83
2018-09-01T03:06:54.633Z,101259.20
2018-09-01T03:09:23.917Z,101252.47
2018-09-01T03:11:54.298Z,101258.38
2018-09-01T03:14:23.935Z,101251.98
2018-09-01T03:16:54.419Z,101255.30
2018-09-01T03:19:23.639Z,101246.69
2018-09-01T03:21:52.468Z,101255.50
2018-09-01T03:24:21.311Z,101251.67
2018-09-01T03:26:50.080Z,101252.62
2018-09-01T03:29:18.954Z,101249.80
2018-09-01T03:31:48.601Z,101252.09
2018-09-01T03:34:18.203Z,101253.13
2018-09-01T03:36:47.047Z,101247.21
2018-09-01T03:39:16.453Z,101250.84
2018-09-01T03:41:45.415Z,101258.20
2018-09-01T03:44:14.944Z,101256.33
2018-09-01T03:46:43.783Z,101261.93
2018-09-01T03:49:13.414Z,101256.64
2018-09-01T03:51:42.188Z,101256.33
2018-09-01T03:54:11.014Z,101259.14
2018-09-01T03:56:40.346Z,101262.34
2018-09-01T03:59:09.192Z,101262.45
2018-09-01T04:01:37.973Z,101259.44
2018-09-01T04:04:06.920Z,101266.72
2018-09-01T04:06:37.017Z,101270.66
2018-09-01T04:09:07.129Z,101275.11
2018-09-01T04:11:36.760Z,101280.50
2018-09-01T04:14:05.883Z,101280.12
2018-09-01T04:16:35.984Z,101288.52
2018-09-01T04:19:10.119Z,101287.69
2018-09-01T04:21:38.927Z,101284.05
2018-09-01T04:24:07.771Z,101284.36
2018-09-01T04:26:37.124Z,101288.41
2018-09-01T04:29:06.440Z,101291.93
2018-09-01T04:31:36.196Z,101286.02
2018-09-01T04:34:05.860Z,101292.32
2018-09-01T04:36:35.256Z,101295.13
2018-09-01T04:39:06.270Z,101291.39
2018-09-01T04:41:35.475Z,101288.70
2018-09-01T04:44:05.014Z,101296.98
2018-09-01T04:46:33.909Z,101292.62
2018-09-01T04:49:03.343Z,101293.98
2018-09-01T04:51:32.123Z,101299.05
2018-09-01T04:54:01.061Z,101292.22
2018-09-01T04:56:30.376Z,101304.45
2018-09-01T04:58:59.564Z,101303.63
2018-09-01T05:01:28.547Z,101301.77
2018-09-01T05:03:57.210Z,101300.73
2018-09-01T05:06:26.761Z,101305.91
2018-09-01T05:08:55.532Z,101302.80
2018-09-01T05:11:25.083Z,101311.51
2018-09-01T05:13:53.871Z,101308.09
2018-09-01T05:16:23.408Z,101312.84
2018-09-01T05:18:52.433Z,101312.42
2018-09-01T05:21:21.224Z,101316.78
2018-09-01T05:23:50.029Z,101317.52
2018-09-01T05:26:18.809Z,101328.79
2018-09-01T05:28:47.759Z,101321.53
2018-09-01T05:31:17.352Z,101327.85
2018-09-01T05:33:47.180Z,101326.92
2018-09-01T05:36:16.113Z,101331.19
2018-09-01T05:38:45.565Z,101333.23
2018-09-01T05:41:15.346Z,101328.25
2018-09-01T05:43:45.057Z,101336.34
2018-09-01T05:46:13.969Z,101339.42
2018-09-01T05:48:43.420Z,101346.06
2018-09-01T05:51:12.353Z,101341.30
2018-09-01T05:53:41.114Z,101345.14
2018-09-01T05:56:09.964Z,101344.72
2018-09-01T05:58:39.440Z,101343.92
2018-09-01T06:01:08.283Z,101344.03
2018-09-01T06:03:37.733Z,101346.38
2018-09-01T06:06:07.256Z,101349.45
2018-09-01T06:08:36.470Z,101358.69
2018-09-01T06:11:06.179Z,101359.73
2018-09-01T06:13:35.396Z,101358.38
2018-09-01T06:16:05.075Z,101359.94
2018-09-01T06:18:34.041Z,101362.33
2018-09-01T06:21:02.813Z,101362.16
2018-09-01T06:23:31.845Z,101364.54
2018-09-01T06:26:00.611Z,101363.39
2018-09-01T06:28:48.530Z,101363.91
2018-09-01T06:31:18.987Z,101370.17
2018-09-01T06:33:48.660Z,101374.31
2018-09-01T06:36:17.525Z,101374.94
2018-09-01T06:38:46.879Z,101373.45
2018-09-01T06:41:16.318Z,101376.16
2018-09-01T06:43:45.707Z,101383.94
2018-09-01T06:46:14.699Z,101374.71
2018-09-01T06:48:44.408Z,101380.42
2018-09-01T06:51:13.156Z,101387.44
2018-09-01T06:53:42.100Z,101389.20
2018-09-01T06:56:11.594Z,101390.94
2018-09-01T06:58:41.107Z,101392.94
2018-09-01T07:01:09.848Z,101402.18
2018-09-01T07:03:38.698Z,101402.39
2018-09-01T07:06:08.049Z,101406.33
2018-09-01T07:08:36.940Z,101405.81
2018-09-01T07:11:07.224Z,101406.64
2018-09-01T07:13:36.240Z,101404.36
2018-09-01T07:16:06.659Z,101405.37
2018-09-01T07:18:35.923Z,101407.75
2018-09-01T07:21:04.900Z,101413.05
2018-09-01T07:23:33.761Z,101418.03
2018-09-01T07:26:02.522Z,101421.11
2018-09-01T07:28:31.392Z,101422.39
2018-09-01T07:31:01.357Z,101426.30
2018-09-01T07:33:30.525Z,101421.42
2018-09-01T07:35:59.611Z,101424.84
2018-09-01T07:38:29.047Z,101427.03
2018-09-01T07:40:58.584Z,101436.02
2018-09-01T07:43:27.799Z,101438.36
2018-09-01T07:45:56.603Z,101438.45
2018-09-01T07:48:26.271Z,101436.59
2018-09-01T07:50:55.752Z,101436.47
2018-09-01T07:53:24.487Z,101441.56
2018-09-01T07:55:53.398Z,101443.44
2018-09-01T07:58:23.169Z,101441.14
2018-09-01T08:00:51.955Z,101444.58
2018-09-01T08:03:20.698Z,101448.27
2018-09-01T08:05:50.051Z,101451.28
2018-09-01T08:08:18.874Z,101452.80
2018-09-01T08:10:48.196Z,101448.64
2018-09-01T08:13:17.033Z,101454.05
2018-09-01T08:15:47.617Z,101461.63
2018-09-01T08:18:16.419Z,101458.30
2018-09-01T08:20:45.496Z,101456.55
2018-09-01T08:23:14.770Z,101467.55
2018-09-01T08:25:43.693Z,101464.75
2018-09-01T08:28:12.716Z,101461.42
2018-09-01T08:30:42.083Z,101469.62
2018-09-01T08:33:11.795Z,101474.27
2018-09-01T08:35:40.635Z,101470.34
2018-09-01T08:38:09.444Z,101471.29
2018-09-01T08:40:38.669Z,101478.66
2018-09-01T08:43:08.891Z,101476.69
2018-09-01T08:45:37.726Z,101475.09
2018-09-01T08:48:07.646Z,101473.89
2018-09-01T08:50:36.820Z,101483.95
2018-09-01T08:53:06.197Z,101476.66
2018-09-01T08:55:35.469Z,101476.70
2018-09-01T08:58:05.045Z,101481.63
2018-09-01T09:00:34.282Z,101480.34
2018-09-01T09:03:03.096Z,101489.32
2018-09-01T09:05:32.565Z,101489.75
2018-09-01T09:08:01.343Z,101486.86
2018-09-01T09:10:30.756Z,101486.00
2018-09-01T09:12:59.573Z,101501.73
2018-09-01T09:15:28.903Z,101502.02
2018-09-01T09:17:57.717Z,101500.66
2018-09-01T09:20:26.536Z,101499.95
2018-09-01T09:22:55.346Z,101504.66
2018-09-01T09:25:24.208Z,101491.53
2018-09-01T09:27:53.106Z,101500.88
2018-09-01T09:30:22.471Z,101501.00
2018-09-01T09:32:51.318Z,101508.37
2018-09-01T09:35:20.668Z,101511.14
2018-09-01T09:37:49.434Z,101505.77
2018-09-01T09:40:18.756Z,101503.41
2018-09-01T09:42:48.096Z,101513.17
2018-09-01T09:45:16.903Z,101513.48
2018-09-01T09:47:47.191Z,101515.98
2018-09-01T09:50:15.968Z,101518.55
2018-09-01T09:52:45.579Z,101518.20
2018-09-01T09:55:15.467Z,101516.46
2018-09-01T09:57:45.207Z,101525.50
2018-09-01T10:00:14.095Z,101529.44
2018-09-01T10:02:43.184Z,101520.50
2018-09-01T10:05:12.865Z,101528.04
2018-09-01T10:07:41.645Z,101525.78
2018-09-01T10:10:10.423Z,101526.22
2018-09-01T10:12:39.875Z,101530.48
2018-09-01T10:15:09.280Z,101520.33
2018-09-01T10:17:38.047Z,101529.64
2018-09-01T10:20:07.235Z,101529.95
2018-09-01T10:22:36.293Z,101523.71
2018-09-01T10:25:05.465Z,101528.50
2018-09-01T10:27:34.695Z,101527.98
2018-09-01T10:30:04.297Z,101530.31
2018-09-01T10:32:33.039Z,101535.03
2018-09-01T10:35:02.785Z,101541.16
2018-09-01T10:37:31.511Z,101538.85
2018-09-01T10:40:00.940Z,101533.52
2018-09-01T10:42:30.429Z,101539.98
2018-09-01T10:44:59.537Z,101548.50
2018-09-01T10:47:28.433Z,101552.92
2018-09-01T10:49:58.042Z,101556.11
2018-09-01T10:52:26.807Z,101557.52
2018-09-01T10:54:55.591Z,101556.19
2018-09-01T10:57:25.111Z,101559.48
2018-09-01T10:59:54.015Z,101563.72
2018-09-01T11:02:22.819Z,101561.00
2018-09-01T11:04:52.454Z,101562.19
2018-09-01T11:07:21.217Z,101569.27
2018-09-01T11:09:50.025Z,101577.27
2018-09-01T11:12:19.597Z,101576.95
2018-09-01T11:14:48.394Z,101581.63
2018-09-01T11:17:18.016Z,101580.97
2018-09-01T11:19:46.900Z,101582.68
2018-09-01T11:22:16.001Z,101589.33
2018-09-01T11:24:44.910Z,101588.85
2018-09-01T11:27:13.844Z,101592.56
2018-09-01T11:29:43.480Z,101586.92
2018-09-01T11:32:12.225Z,101587.55
2018-09-01T11:34:41.599Z,101588.69
2018-09-01T11:37:10.354Z,101594.55
2018-09-01T11:39:39.771Z,101588.76
2018-09-01T11:42:08.612Z,101588.60
2018-09-01T11:44:38.235Z,101593.03
2018-09-01T11:47:07.208Z,101594.29
2018-09-01T11:49:37.160Z,101593.42
2018-09-01T11:52:06.389Z,101593.56
2018-09-01T11:54:35.571Z,101603.95
2018-09-01T11:57:05.415Z,101601.39
2018-09-01T11:59:34.516Z,101596.13
2018-09-01T12:02:03.520Z,101606.84
2018-09-01T12:04:33.526Z,101600.89
2018-09-01T12:07:02.296Z,101611.84
2018-09-01T12:09:31.067Z,101610.68
2018-09-01T12:12:00.410Z,101604.78
2018-09-01T12:14:29.143Z,101604.34
2018-09-01T12:16:58.836Z,101605.19
2018-09-01T12:19:27.591Z,101600.89
2018-09-01T12:21:56.502Z,101602.08
2018-09-01T12:24:25.307Z,101607.31
2018-09-01T12:26:54.528Z,101598.69
2018-09-01T12:29:23.435Z,101600.12
2018-09-01T12:31:53.257Z,101602.87
2018-09-01T12:34:22.508Z,101609.05
2018-09-01T12:36:51.667Z,101603.81
2018-09-01T12:39:21.235Z,101607.95
2018-09-01T12:41:50.040Z,101596.65
2018-09-01T12:44:19.281Z,101596.23
2018-09-01T12:46:48.294Z,101602.07
2018-09-01T12:49:17.703Z,101604.91
2018-09-01T12:51:46.507Z,101608.03
2018-09-01T12:54:15.379Z,101604.94
2018-09-01T12:56:45.275Z,101607.28
2018-09-01T12:59:14.267Z,101608.56
2018-09-01T13:01:43.964Z,101604.03
2018-09-01T13:04:12.763Z,101600.84
2018-09-01T13:06:42.323Z,101601.31
2018-09-01T13:09:11.211Z,101601.14
2018-09-01T13:11:40.495Z,101609.45
2018-09-01T13:14:09.276Z,101616.58
2018-09-01T13:16:38.075Z,101613.67
2018-09-01T13:19:07.198Z,101619.51
2018-09-01T13:21:36.766Z,101620.72
2018-09-01T13:24:05.847Z,101619.65
2018-09-01T13:26:34.900Z,101620.41
2018-09-01T13:29:04.109Z,101620.72
2018-09-01T13:31:33.560Z,101630.84
2018-09-01T13:34:03.577Z,101623.42
2018-09-01T13:36:32.348Z,101628.13
2018-09-01T13:39:01.855Z,101624.55
2018-09-01T13:41:30.656Z,101636.52
2018-09-01T13:44:00.139Z,101630.91
2018-09-01T13:46:28.917Z,101636.95
2018-09-01T13:48:58.236Z,101634.09
2018-09-01T13:51:27.019Z,101636.11
2018-09-01T13:53:55.822Z,101633.54
2018-09-01T13:56:24.629Z,101629.80
2018-09-01T13:58:54.993Z,101632.36
2018-09-01T14:01:23.790Z,101633.28
2018-09-01T14:03:52.597Z,101635.45
2018-09-01T14:06:21.746Z,101630.13
2018-09-01T14:08:50.506Z,101630.36
2018-09-01T14:11:19.927Z,101632.61
2018-09-01T14:16:16.835Z,101627.30
2018-09-01T14:18:45.905Z,101633.98
2018-09-01T14:21:15.538Z,101634.39
2018-09-01T14:23:44.389Z,101622.22
2018-09-01T14:26:13.315Z,101630.13
2018-09-01T14:28:42.145Z,101631.45
2018-09-01T14:31:11.662Z,101627.22
2018-09-01T14:33:40.939Z,101628.52
2018-09-01T14:36:09.810Z,101625.55
2018-09-01T14:38:39.486Z,101626.63
2018-09-01T14:41:08.987Z,101638.23
2018-09-01T14:43:38.364Z,101634.59
2018-09-01T14:46:07.264Z,101631.38
2018-09-01T14:48:37.375Z,101635.45
2018-09-01T14:51:06.507Z,101633.17
2018-09-01T14:53:35.636Z,101637.91
2018-09-01T14:56:04.669Z,101637.25
2018-09-01T14:58:34.273Z,101636.78
2018-09-01T15:01:03.033Z,101635.72
2018-09-01T15:03:31.802Z,101641.95
2018-09-01T15:06:01.178Z,101630.55
2018-09-01T15:08:29.989Z,101636.35
2018-09-01T15:10:59.414Z,101630.39
2018-09-01T15:13:28.168Z,101630.39
2018-09-01T15:15:57.367Z,101633.00
2018-09-01T15:18:26.158Z,101634.77
2018-09-01T15:20:55.704Z,101637.19
2018-09-01T15:23:24.464Z,101631.15
2018-09-01T15:25:53.282Z,101631.22
2018-09-01T15:28:22.122Z,101637.25
2018-09-01T15:30:51.803Z,101633.30
2018-09-01T15:33:21.424Z,101635.98
2018-09-01T15:35:50.223Z,101631.73
2018-09-01T15:38:19.963Z,101632.03
2018-09-01T15:40:50.543Z,101638.84
2018-09-01T15:43:19.863Z,101638.00
2018-09-01T15:45:48.677Z,101642.55
2018-09-01T15:48:18.013Z,101641.70
2018-09-01T15:50:46.859Z,101646.30
2018-09-01T15:53:16.273Z,101649.34
2018-09-01T15:55:45.918Z,101651.69
2018-09-01T15:58:15.688Z,101654.89
2018-09-01T16:00:44.767Z,101655.95
2018-09-01T16:03:14.300Z,101654.47
2018-09-01T16:05:43.888Z,101651.70
2018-09-01T16:08:12.714Z,101649.69
2018-09-01T16:10:42.279Z,101652.84
2018-09-01T16:13:11.071Z,101662.44
2018-09-01T16:15:39.952Z,101664.05
2018-09-01T16:18:08.827Z,101656.86
2018-09-01T16:20:38.294Z,101661.85
2018-09-01T16:23:07.446Z,101665.89
2018-09-01T16:25:36.924Z,101659.77
2018-09-01T16:28:06.332Z,101666.66
2018-09-01T16:30:36.712Z,101663.80
2018-09-01T16:33:06.789Z,101665.06
2018-09-01T16:35:35.772Z,101658.89
2018-09-01T16:38:05.023Z,101660.91
2018-09-01T16:40:34.910Z,101661.16
2018-09-01T16:43:04.917Z,101663.31
2018-09-01T16:45:33.692Z,101664.30
2018-09-01T16:48:03.132Z,101667.98
2018-09-01T16:50:31.890Z,101672.81
2018-09-01T16:53:00.666Z,101670.66
2018-09-01T16:55:29.468Z,101679.91
2018-09-01T16:58:00.018Z,101681.38
2018-09-01T17:00:28.814Z,101680.91
2018-09-01T17:02:57.629Z,101677.72
2018-09-01T17:05:27.121Z,101686.00
2018-09-01T17:07:55.909Z,101686.19
2018-09-01T17:10:24.723Z,101695.11
2018-09-01T17:12:54.307Z,101694.26
2018-09-01T17:15:23.175Z,101692.69
2018-09-01T17:17:52.008Z,101699.30
2018-09-01T17:20:21.468Z,101704.99
2018-09-01T17:22:50.314Z,101705.89
2018-09-01T17:25:19.095Z,101708.23
2018-09-01T17:27:47.987Z,101714.95
2018-09-01T17:30:17.374Z,101712.31
2018-09-01T17:32:46.355Z,101710.57
2018-09-01T17:35:46.713Z,101713.59
2018-09-01T17:38:16.210Z,101712.97
2018-09-01T17:40:45.639Z,101717.61
2018-09-01T17:43:15.641Z,101714.55
2018-09-01T17:45:45.780Z,101727.04
2018-09-01T17:48:15.313Z,101725.94
2018-09-01T17:50:44.513Z,101732.17
2018-09-01T17:53:13.579Z,101726.81
2018-09-01T17:55:42.500Z,101733.93
2018-09-01T17:58:12.049Z,101726.75
2018-09-01T18:00:40.998Z,101730.05
2018-09-01T18:03:10.447Z,101728.63
2018-09-01T18:05:40.342Z,101727.85
2018-09-01T18:08:09.063Z,101734.37
2018-09-01T18:10:38.905Z,101737.41
2018-09-01T18:13:07.687Z,101745.86
2018-09-01T18:15:36.863Z,101747.25
2018-09-01T18:18:06.113Z,101746.72
2018-09-01T18:20:35.975Z,101744.67
2018-09-01T18:23:04.821Z,101747.28
2018-09-01T18:25:33.766Z,101750.09
2018-09-01T18:28:02.631Z,101752.70
2018-09-01T18:30:32.285Z,101757.80
2018-09-01T18:33:01.555Z,101760.96
2018-09-01T18:35:30.336Z,101761.38
2018-09-01T18:37:59.066Z,101762.95
2018-09-01T18:40:28.510Z,101762.32
2018-09-01T18:42:57.813Z,101762.01
2018-09-01T18:45:26.562Z,101765.76
2018-09-01T18:47:55.949Z,101766.20
2018-09-01T18:50:24.699Z,101765.89
2018-09-01T18:52:53.475Z,101768.91
2018-09-01T18:55:22.251Z,101768.91
2018-09-01T18:57:52.076Z,101762.88
2018-09-01T19:00:20.938Z,101760.28
2018-09-01T19:02:49.754Z,101759.66
2018-09-01T19:05:19.233Z,101762.25
2018-09-01T19:07:47.968Z,101765.41
2018-09-01T19:10:17.092Z,101768.01
2018-09-01T19:12:46.499Z,101770.81
2018-09-01T19:15:15.448Z,101771.44
2018-09-01T19:17:44.453Z,101777.81
2018-09-01T19:20:15.447Z,101778.54
2018-09-01T19:22:44.519Z,101782.91
2018-09-01T19:25:13.531Z,101780.42
2018-09-01T19:27:42.445Z,101778.55
2018-09-01T19:30:12.012Z,101778.56
2018-09-01T19:32:40.861Z,101782.40
2018-09-01T19:35:11.123Z,101791.15
2018-09-01T19:37:39.895Z,101794.95
2018-09-01T19:40:09.875Z,101803.86
2018-09-01T19:42:39.330Z,101800.55
2018-09-01T19:45:08.260Z,101801.98
2018-09-01T19:47:37.514Z,101809.69
2018-09-01T19:50:07.723Z,101807.39
2018-09-01T19:52:36.863Z,101807.27
2018-09-01T19:55:06.720Z,101811.21
2018-09-01T19:57:36.753Z,101803.74
2018-09-01T20:00:07.097Z,101810.14
2018-09-01T20:02:36.233Z,101811.27
2018-09-01T20:05:06.024Z,101805.46
2018-09-01T20:07:35.203Z,101815.51
2018-09-01T20:10:04.150Z,101810.70
2018-09-01T20:13:05.383Z,101809.47
2018-09-01T20:15:35.989Z,101813.80
2018-09-01T20:18:05.148Z,101816.80
2018-09-01T20:20:36.065Z,101814.18
2018-09-01T20:23:05.775Z,101822.67
2018-09-01T20:25:34.688Z,101825.25
2018-09-01T20:28:03.540Z,101827.95
2018-09-01T20:30:33.004Z,101824.09
2018-09-01T20:33:02.523Z,101827.22
2018-09-01T20:35:36.567Z,101837.37
2018-09-01T20:38:06.179Z,101837.25
2018-09-01T20:40:36.583Z,101841.18
2018-09-01T20:43:06.199Z,101843.23
2018-09-01T20:45:35.888Z,101849.06
2018-09-01T20:48:05.900Z,101850.28
2018-09-01T20:50:34.836Z,101849.80
2018-09-01T20:53:03.691Z,101847.81
2018-09-01T20:55:32.640Z,101854.12
2018-09-01T20:58:01.892Z,101851.84
2018-09-01T21:00:30.752Z,101850.44
2018-09-01T21:02:59.611Z,101859.11
2018-09-01T21:05:29.245Z,101859.39
2018-09-01T21:07:58.122Z,101857.27
2018-09-01T21:10:27.370Z,101860.58
2018-09-01T21:12:56.751Z,101854.22
2018-09-01T21:15:25.509Z,101851.08
2018-09-01T21:17:54.304Z,101857.37
2018-09-01T21:20:23.744Z,101854.95
2018-09-01T21:22:52.602Z,101858.67
2018-09-01T21:25:21.801Z,101863.75
2018-09-01T21:27:50.615Z,101866.69
2018-09-01T21:30:20.011Z,101863.95
2018-09-01T21:32:48.916Z,101866.84
2018-09-01T21:35:18.424Z,101870.62
2018-09-01T21:37:47.220Z,101871.54
2018-09-01T21:40:17.219Z,101872.43
2018-09-01T21:42:47.118Z,101876.53
2018-09-01T21:45:16.051Z,101880.44
2018-09-01T21:47:45.753Z,101880.38
2018-09-01T21:50:14.672Z,101884.66
2018-09-01T21:52:43.651Z,101881.54
2018-09-01T21:55:12.640Z,101886.79
2018-09-01T21:57:42.061Z,101883.12
2018-09-01T22:00:11.276Z,101882.98
2018-09-01T22:02:40.040Z,101886.53
2018-09-01T22:05:15.827Z,101885.08
2018-09-01T22:07:45.065Z,101891.34
2018-09-01T22:10:13.916Z,101893.25
2018-09-01T22:12:43.354Z,101886.05
2018-09-01T22:15:12.142Z,101893.70
2018-09-01T22:17:40.924Z,101892.22
2018-09-01T22:20:10.291Z,101894.44
2018-09-01T22:22:39.051Z,101886.73
2018-09-01T22:25:07.941Z,101887.83
2018-09-01T22:27:37.071Z,101895.77
2018-09-01T22:30:07.268Z,101892.74
2018-09-01T22:32:36.329Z,101897.15
2018-09-01T22:35:06.052Z,101893.19
2018-09-01T22:37:35.142Z,101885.98
2018-09-01T22:40:05.219Z,101888.86
2018-09-01T22:42:35.059Z,101892.10
2018-09-01T22:45:03.839Z,101899.52
2018-09-01T22:47:34.660Z,101901.59
2018-09-01T22:50:05.647Z,101903.63
2018-09-01T22:52:34.779Z,101900.28
2018-09-01T22:55:03.632Z,101906.06
2018-09-01T22:57:33.214Z,101900.42
2018-09-01T23:00:01.983Z,101899.95
2018-09-01T23:02:30.721Z,101903.33
2018-09-01T23:05:00.171Z,101905.69
2018-09-01T23:07:28.962Z,101904.92
2018-09-01T23:09:57.736Z,101907.28
2018-09-01T23:12:27.764Z,101902.27
2018-09-01T23:14:56.681Z,101902.95
2018-09-01T23:17:25.452Z,101900.11
2018-09-01T23:19:55.024Z,101906.06
2018-09-01T23:22:23.789Z,101908.45
2018-09-01T23:24:52.559Z,101911.89
2018-09-01T23:27:21.394Z,101915.11
2018-09-01T23:29:51.238Z,101914.96
2018-09-01T23:32:20.120Z,101922.88
2018-09-01T23:34:49.767Z,101923.38
2018-09-01T23:37:18.539Z,101925.92
2018-09-01T23:39:47.959Z,101922.59
2018-09-01T23:42:16.715Z,101916.59
2018-09-01T23:44:46.086Z,101918.01
2018-09-01T23:47:15.009Z,101918.71
2018-09-01T23:49:44.652Z,101921.40
2018-09-01T23:52:13.589Z,101921.10
2018-09-01T23:54:42.343Z,101918.08
2018-09-01T23:57:11.925Z,101923.96
2018-09-01T23:59:40.771Z,101933.54
